Time;durP1;ratioP1;P1;durP2;ratioP2;P2;SDS_P1;SDS_P2;PMS_P1;PMS_P2;Temp;Humidity;BMP_temperature;BMP_pressure;BME280_temperature;BME280_humidity;BME280_pressure;Samples;Min_cycle;Max_cycle;Signal;HPM_P1;HPM_P2
2021/03/18 00:02:07;;;;;;;3.12;2.58;;;;;;;-1.68;100.00;101289.09;2568504;55;20125;-66
2021/03/18 00:04:37;;;;;;;4.50;2.72;;;;;;;-1.69;100.00;101297.84;2568198;55;20113;-68
2021/03/18 00:07:08;;;;;;;3.30;2.50;;;;;;;-1.69;100.00;101290.00;2568511;55;20129;-66
2021/03/18 00:09:37;;;;;;;3.53;2.55;;;;;;;-1.70;100.00;101299.56;2568770;55;20132;-68
2021/03/18 00:12:06;;;;;;;5.95;3.03;;;;;;;-1.72;100.00;101292.62;2568671;55;20488;-66
2021/03/18 00:14:33;;;;;;;3.80;2.70;;;;;;;-1.76;100.00;101297.03;2573673;55;20094;-66
2021/03/18 00:17:03;;;;;;;4.45;3.12;;;;;;;-1.76;100.00;101286.56;2573880;55;20152;-67
2021/03/18 00:19:32;;;;;;;3.55;2.47;;;;;;;-1.73;100.00;101291.78;2568722;55;20136;-66
2021/03/18 00:22:00;;;;;;;4.40;2.85;;;;;;;-1.77;100.00;101294.47;2573608;55;20168;-66
2021/03/18 00:24:28;;;;;;;4.20;2.50;;;;;;;-1.77;100.00;101294.47;2573440;55;20110;-66
2021/03/18 00:26:55;;;;;;;4.57;3.58;;;;;;;-1.75;100.00;101288.31;2568422;55;20126;-66
2021/03/18 00:29:25;;;;;;;4.78;3.40;;;;;;;-1.74;100.00;101283.94;2568441;55;20132;-68
2021/03/18 00:31:54;;;;;;;4.43;3.58;;;;;;;-1.78;100.00;101290.97;2573446;55;20136;-66
2021/03/18 00:34:25;;;;;;;4.75;3.17;;;;;;;-1.77;100.00;101289.22;2568571;55;20109;-69
2021/03/18 00:36:54;;;;;;;4.87;3.45;;;;;;;-1.78;100.00;101290.13;2573339;55;20114;-69
2021/03/18 00:39:29;;;;;;;3.90;3.15;;;;;;;-1.78;100.00;101287.50;2568404;55;20132;-66
2021/03/18 00:42:00;;;;;;;4.45;3.42;;;;;;;-1.77;100.00;101289.22;2573313;55;20110;-68
2021/03/18 00:44:31;;;;;;;5.32;3.72;;;;;;;-1.83;100.00;101277.09;2573528;55;20124;-68
2021/03/18 00:46:59;;;;;;;6.75;3.33;;;;;;;-1.88;100.00;101271.94;2568293;55;20528;-67
2021/03/18 00:49:28;;;;;;;5.03;3.60;;;;;;;-1.88;100.00;101287.63;2573345;55;20131;-66
2021/03/18 00:51:56;;;;;;;4.18;3.40;;;;;;;-1.87;100.00;101278.00;2573408;55;20604;-69
2021/03/18 00:54:24;;;;;;;5.75;3.60;;;;;;;-1.89;100.00;101278.06;2573470;55;20635;-67
2021/03/18 00:56:55;;;;;;;7.93;3.70;;;;;;;-1.86;100.00;101275.38;2573449;55;20113;-66
2021/03/18 00:59:24;;;;;;;5.62;4.15;;;;;;;-1.85;100.00;101276.25;2573265;55;20109;-69
2021/03/18 01:01:53;;;;;;;6.00;4.03;;;;;;;-1.84;100.00;101278.84;2573357;55;20106;-68
2021/03/18 01:04:22;;;;;;;4.28;3.45;;;;;;;-1.84;100.00;101278.84;2568307;55;20122;-69
2021/03/18 01:06:50;;;;;;;5.80;4.20;;;;;;;-1.84;100.00;101283.22;2573328;55;20136;-68
2021/03/18 01:09:20;;;;;;;6.25;4.10;;;;;;;-1.81;100.00;101270.09;2573338;55;20128;-66
2021/03/18 01:11:47;;;;;;;7.10;4.25;;;;;;;-1.88;100.00;101265.81;2573303;55;20626;-68
2021/03/18 01:14:16;;;;;;;6.15;4.12;;;;;;;-1.87;100.00;101276.28;2568162;55;20597;-69
2021/03/18 01:16:49;;;;;;;7.68;5.20;;;;;;;-1.85;100.00;101276.25;2568166;55;20519;-68
2021/03/18 01:19:20;;;;;;;5.90;4.03;;;;;;;-1.88;100.00;101271.06;2568299;55;20149;-67
2021/03/18 01:21:51;;;;;;;6.47;4.78;;;;;;;-1.88;100.00;101266.69;2573310;55;20634;-68
2021/03/18 01:24:19;;;;;;;;;;;;;;;-1.75;100.00;101266.53;2573631;55;20121;-69
2021/03/18 01:26:49;;;;;;;5.45;3.83;;;;;;;-1.88;100.00;101264.09;2573269;55;19994;-68
2021/03/18 01:29:17;;;;;;;5.68;4.10;;;;;;;-1.90;100.00;101263.25;2573156;55;20672;-67
2021/03/18 01:31:48;;;;;;;5.37;3.95;;;;;;;-1.92;100.00;101253.69;2568212;55;20136;-66
2021/03/18 01:34:16;;;;;;;6.37;4.00;;;;;;;-1.85;100.00;101265.81;2573436;55;20121;-69
2021/03/18 01:36:45;;;;;;;6.15;3.92;;;;;;;-1.90;100.00;101250.19;2573269;55;20118;-66
2021/03/18 01:39:17;;;;;;;6.37;4.25;;;;;;;-1.87;100.00;101262.31;2568140;55;20113;-66
2021/03/18 01:41:45;;;;;;;7.57;4.25;;;;;;;-1.85;100.00;101261.41;2573022;55;20154;-68
2021/03/18 01:44:13;;;;;;;5.57;3.80;;;;;;;-1.84;100.00;101252.69;2573367;55;20252;-66
2021/03/18 01:46:44;;;;;;;5.95;3.87;;;;;;;-1.83;100.00;101254.41;2568246;55;20604;-66
2021/03/18 01:49:11;;;;;;;4.97;3.58;;;;;;;-1.86;100.00;101248.34;2568158;55;20113;-66
2021/03/18 01:51:39;;;;;;;5.00;3.22;;;;;;;-1.84;100.00;101247.44;2573134;55;20516;-68
2021/03/18 01:54:07;;;;;;;5.93;4.12;;;;;;;-1.88;100.00;101239.66;2568023;55;20134;-69
2021/03/18 01:56:36;;;;;;;4.57;3.20;;;;;;;-1.86;100.00;101241.38;2573145;55;20125;-68
2021/03/18 01:59:04;;;;;;;6.55;3.97;;;;;;;-1.86;100.00;101237.88;2573181;55;20145;-67
2021/03/18 02:01:33;;;;;;;4.87;3.22;;;;;;;-1.91;100.00;101239.72;2573194;55;20733;-69
2021/03/18 02:04:03;;;;;;;4.35;3.17;;;;;;;-1.88;100.00;101239.66;2568215;55;20113;-66
2021/03/18 02:06:31;;;;;;;6.30;3.30;;;;;;;-1.91;100.00;101245.81;2568108;55;20106;-68
2021/03/18 02:09:01;;;;;;;4.93;3.78;;;;;;;-1.96;100.00;101237.16;2568201;55;20129;-67
2021/03/18 02:11:29;;;;;;;3.90;3.10;;;;;;;-1.93;100.00;101241.50;2573034;55;20120;-67
2021/03/18 02:14:00;;;;;;;4.10;2.60;;;;;;;-1.94;100.00;101235.38;2567935;55;20121;-66
2021/03/18 02:16:34;;;;;;;4.07;2.72;;;;;;;-1.94;100.00;101235.38;2573014;55;20121;-69
2021/03/18 02:19:14;;;;;;;4.90;3.37;;;;;;;-1.94;100.00;101235.38;2568082;55;20118;-67
2021/03/18 02:22:23;;;;;;;3.95;2.92;;;;;;;-1.94;100.00;101219.69;2573041;55;20114;-68
2021/03/18 02:25:00;;;;;;;4.10;3.17;;;;;;;-2.01;100.00;101226.78;2573271;55;20124;-68
2021/03/18 02:27:58;;;;;;;4.50;2.85;;;;;;;-1.97;100.00;101227.59;2573082;55;20122;-69
2021/03/18 02:30:56;;;;;;;5.00;3.40;;;;;;;-1.98;100.00;101223.25;2567898;55;20118;-67
2021/03/18 02:34:03;;;;;;;5.40;3.70;;;;;;;-1.97;100.00;101222.38;2573129;55;20139;-68
2021/03/18 02:36:37;;;;;;;3.53;2.75;;;;;;;-2.04;100.00;101218.97;2573085;55;20120;-66
2021/03/18 02:39:09;;;;;;;4.47;3.05;;;;;;;-2.04;100.00;101218.09;2568027;55;20124;-66
2021/03/18 02:41:44;;;;;;;5.37;3.53;;;;;;;-2.03;100.00;101225.94;2567906;55;20114;-67
2021/03/18 02:44:16;;;;;;;3.53;2.90;;;;;;;-2.04;100.00;101231.19;2573085;55;20117;-68
2021/03/18 02:46:48;;;;;;;4.32;3.20;;;;;;;-2.05;100.00;101226.84;2567855;55;20560;-69
2021/03/18 02:49:18;;;;;;;;;;;;;;;-1.91;100.00;101231.88;2573361;55;20110;-66
2021/03/18 02:51:48;;;;;;;4.68;3.30;;;;;;;-2.03;100.00;101225.94;2573237;55;20000;-68
2021/03/18 02:54:20;;;;;;;4.82;2.85;;;;;;;-2.06;100.00;101225.12;2573617;55;20630;-66
2021/03/18 02:56:53;;;;;;;4.40;3.15;;;;;;;-2.07;100.00;101228.62;2573911;55;20659;-67
2021/03/18 02:59:27;;;;;;;4.15;2.85;;;;;;;-2.11;100.00;101223.41;2573783;55;20121;-69
2021/03/18 03:01:56;;;;;;;4.47;3.00;;;;;;;-2.16;100.00;101222.63;2568725;55;20127;-69
2021/03/18 03:04:25;;;;;;;4.43;3.00;;;;;;;-2.18;100.00;101221.78;2568829;55;20118;-66
2021/03/18 03:06:55;;;;;;;4.55;3.10;;;;;;;-2.20;100.00;101223.56;2568541;55;20132;-69
2021/03/18 03:09:25;;;;;;;4.00;2.92;;;;;;;-2.23;100.00;101223.59;2573780;55;20117;-68
2021/03/18 03:11:57;;;;;;;4.60;3.10;;;;;;;-2.29;100.00;101218.47;2573729;55;20117;-67
2021/03/18 03:14:27;;;;;;;4.57;3.12;;;;;;;-2.23;100.00;101226.22;2573732;55;20125;-68
2021/03/18 03:17:00;;;;;;;3.92;3.05;;;;;;;-2.21;100.00;101227.03;2568533;55;20132;-68
2021/03/18 03:19:34;;;;;;;6.37;3.50;;;;;;;-2.21;100.00;101221.81;2568602;55;20114;-66
2021/03/18 03:22:07;;;;;;;4.90;3.37;;;;;;;-2.21;100.00;101221.81;2573507;55;20114;-68
2021/03/18 03:24:39;;;;;;;4.28;3.53;;;;;;;-2.22;100.00;101224.47;2574025;55;20117;-66
2021/03/18 03:27:08;;;;;;;4.62;3.08;;;;;;;-2.20;100.00;101218.34;2573775;55;20486;-66
2021/03/18 03:29:42;;;;;;;4.55;3.20;;;;;;;-2.19;100.00;101220.06;2573805;55;20121;-69
2021/03/18 03:32:14;;;;;;;4.15;2.85;;;;;;;-2.22;100.00;101217.47;2573702;55;20113;-67
2021/03/18 03:34:45;;;;;;;5.37;3.62;;;;;;;-2.19;100.00;101220.06;2573691;55;20125;-67
2021/03/18 03:37:15;;;;;;;4.12;3.12;;;;;;;-2.18;100.00;101213.94;2573650;55;20104;-68
2021/03/18 03:39:43;;;;;;;4.12;3.10;;;;;;;-2.18;100.00;101210.47;2573536;55;20120;-68
2021/03/18 03:42:14;;;;;;;3.92;2.85;;;;;;;-2.20;99.21;101217.47;2568479;55;20127;-67
2021/03/18 03:44:43;;;;;;;4.70;3.28;;;;;;;-2.21;99.27;101210.50;2573569;55;20635;-69
2021/03/18 03:47:12;;;;;;;4.47;3.00;;;;;;;-2.19;98.67;101207.00;2568653;55;20168;-69
2021/03/18 03:49:46;;;;;;;4.18;3.17;;;;;;;-2.16;98.53;101214.78;2573725;55;20106;-66
2021/03/18 03:52:24;;;;;;;4.30;3.03;;;;;;;-2.11;98.41;101212.94;2573576;55;20105;-68
2021/03/18 03:54:59;;;;;;;4.05;3.20;;;;;;;-2.18;98.56;101211.34;2568573;55;20122;-69
2021/03/18 03:57:33;;;;;;;4.57;3.10;;;;;;;-2.21;98.42;101208.75;2573641;55;20516;-69
2021/03/18 04:00:08;;;;;;;3.62;2.72;;;;;;;-2.22;98.50;101208.78;2573555;55;20117;-69
2021/03/18 04:02:41;;;;;;;4.85;3.20;;;;;;;-2.18;98.24;101216.56;2573732;55;20143;-66
2021/03/18 04:05:13;;;;;;;5.03;3.20;;;;;;;-2.17;99.13;101206.94;2573708;55;20118;-67
2021/03/18 04:07:46;;;;;;;4.25;2.97;;;;;;;-2.18;97.33;101198.25;2573757;55;20122;-68
2021/03/18 04:10:17;;;;;;;4.62;3.10;;;;;;;-2.16;97.90;101199.09;2574829;55;20113;-69
2021/03/18 04:12:46;;;;;;;7.40;3.10;;;;;;;-2.17;97.72;101199.09;2574083;55;20175;-67
2021/03/18 04:15:19;;;;;;;4.95;3.53;;;;;;;-2.20;96.97;101193.94;2568389;55;20180;-69
2021/03/18 04:17:52;;;;;;;4.10;2.80;;;;;;;-2.17;95.94;101192.13;2568512;55;20135;-66
2021/03/18 04:20:22;;;;;;;4.28;2.70;;;;;;;-2.16;96.24;101193.88;2573561;55;20508;-67
2021/03/18 04:22:55;;;;;;;4.10;3.10;;;;;;;-2.16;96.34;101191.25;2575326;55;20138;-68
2021/03/18 04:25:26;;;;;;;4.10;2.78;;;;;;;-2.17;96.52;101189.53;2568934;55;20117;-69
2021/03/18 04:27:59;;;;;;;3.35;2.55;;;;;;;-2.12;96.17;101184.22;2573631;55;20114;-66
2021/03/18 04:30:37;;;;;;;4.05;2.83;;;;;;;-2.13;96.54;101178.12;2574482;55;20506;-66
2021/03/18 04:33:06;;;;;;;4.35;3.10;;;;;;;-2.13;95.95;101172.91;2576234;55;20113;-69
2021/03/18 04:35:37;;;;;;;3.73;2.80;;;;;;;-2.11;95.87;101171.12;2573429;55;20124;-67
2021/03/18 04:38:09;;;;;;;5.35;3.50;;;;;;;-2.16;95.92;101154.66;2575434;55;20162;-66
2021/03/18 04:40:36;;;;;;;3.90;3.05;;;;;;;-2.16;96.60;101164.22;2574011;55;20113;-67
2021/03/18 04:43:05;;;;;;;5.78;3.83;;;;;;;-2.17;95.90;101170.34;2573406;55;20136;-67
2021/03/18 04:45:40;;;;;;;5.93;4.05;;;;;;;-2.18;96.54;101174.72;2568072;55;20109;-66
2021/03/18 04:48:12;;;;;;;5.87;3.55;;;;;;;-2.19;96.65;101173.00;2575322;55;20125;-66
2021/03/18 04:50:42;;;;;;;5.40;3.65;;;;;;;-2.18;96.60;101168.63;2568487;55;20143;-69
2021/03/18 04:53:12;;;;;;;6.95;4.78;;;;;;;-2.16;96.45;101166.84;2574834;55;20632;-67
2021/03/18 04:55:42;;;;;;;4.97;3.70;;;;;;;-2.18;96.45;101163.38;2575418;55;20994;-69
2021/03/18 04:58:13;;;;;;;5.32;3.78;;;;;;;-2.16;97.00;101157.25;2575401;55;20673;-67
2021/03/18 05:00:42;;;;;;;6.60;3.95;;;;;;;-2.11;96.60;101165.03;2575173;55;20113;-67
2021/03/18 05:03:13;;;;;;;6.47;3.95;;;;;;;-2.03;96.07;101167.53;2569657;55;20114;-69
2021/03/18 05:05:43;;;;;;;5.25;3.45;;;;;;;-2.06;93.82;101167.59;2569386;55;20136;-68
2021/03/18 05:08:12;;;;;;;4.55;3.15;;;;;;;-2.08;92.84;101161.53;2574872;55;20148;-68
2021/03/18 05:10:43;;;;;;;4.85;3.10;;;;;;;-2.05;92.42;101164.97;2568012;55;20134;-69
2021/03/18 05:13:14;;;;;;;4.53;2.83;;;;;;;-2.03;90.29;101157.94;2570242;55;20123;-68
2021/03/18 05:15:43;;;;;;;;;;;;;;;-1.89;92.14;101155.09;2568182;55;20121;-68
2021/03/18 05:18:15;;;;;;;4.37;3.20;;;;;;;-2.04;90.09;101152.72;2568487;55;20027;-67
2021/03/18 05:20:46;;;;;;;6.37;3.30;;;;;;;-2.04;90.19;101144.88;2575814;55;20121;-68
2021/03/18 05:23:17;;;;;;;4.72;3.08;;;;;;;-2.00;90.50;101149.19;2577418;55;20102;-68
2021/03/18 05:25:47;;;;;;;3.60;2.62;;;;;;;-2.01;88.57;101144.81;2568451;55;20122;-69
2021/03/18 05:28:19;;;;;;;5.15;2.97;;;;;;;-1.97;89.43;101149.13;2575483;55;20648;-69
2021/03/18 05:30:50;;;;;;;4.55;3.28;;;;;;;-2.01;88.68;101147.44;2567789;55;20124;-69
2021/03/18 05:33:19;;;;;;;4.53;3.35;;;;;;;-2.03;89.52;101146.59;2565624;55;20129;-70
2021/03/18 05:35:47;;;;;;;4.95;3.65;;;;;;;-2.02;89.01;101138.75;2565145;55;20109;-70
2021/03/18 05:38:19;;;;;;;6.70;4.35;;;;;;;-1.97;88.73;101144.75;2572687;55;20122;-71
2021/03/18 05:40:52;;;;;;;6.03;3.60;;;;;;;-1.94;88.36;101136.00;2565458;55;20512;-70
2021/03/18 05:43:23;;;;;;;5.30;3.30;;;;;;;-1.94;88.04;101145.63;2565586;55;20172;-70
2021/03/18 05:45:52;;;;;;;4.68;3.83;;;;;;;-1.92;87.43;101146.44;2565986;55;20159;-70
2021/03/18 05:48:21;;;;;;;5.32;3.40;;;;;;;-1.94;87.60;101145.63;2565219;55;20124;-70
2021/03/18 05:50:52;;;;;;;5.68;3.62;;;;;;;-2.00;87.98;101143.97;2572090;55;20117;-70
2021/03/18 05:53:22;;;;;;;5.28;3.60;;;;;;;-2.02;86.98;101132.63;2572869;55;20121;-70
2021/03/18 05:55:59;;;;;;;5.03;3.45;;;;;;;-2.00;87.83;101136.97;2566029;55;20117;-70
2021/03/18 05:58:26;;;;;;;4.93;3.90;;;;;;;-1.92;87.34;101139.44;2566561;55;20136;-70
2021/03/18 06:00:59;;;;;;;4.78;3.65;;;;;;;-1.90;87.97;101137.69;2568342;55;20421;-67
2021/03/18 06:03:28;;;;;;;6.22;3.72;;;;;;;-1.83;87.37;101138.44;2574459;55;20127;-69
2021/03/18 06:06:02;;;;;;;4.22;3.20;;;;;;;-1.79;87.45;101140.09;2571226;55;20121;-69
2021/03/18 06:08:35;;;;;;;4.25;2.78;;;;;;;-1.82;86.13;101146.25;2567390;55;20631;-68
2021/03/18 06:11:05;;;;;;;4.15;3.30;;;;;;;-1.83;85.70;101134.06;2567954;55;20114;-67
2021/03/18 06:13:35;;;;;;;4.30;3.20;;;;;;;-1.84;85.29;101132.34;2573064;55;20117;-67
2021/03/18 06:16:05;;;;;;;4.37;3.33;;;;;;;-1.83;86.10;101135.84;2573024;55;20139;-67
2021/03/18 06:18:37;;;;;;;4.25;3.05;;;;;;;-1.79;86.00;101134.03;2568180;55;20666;-68
2021/03/18 06:21:06;;;;;;;3.85;2.87;;;;;;;-1.86;85.74;101136.75;2568115;55;20136;-67
2021/03/18 06:23:35;;;;;;;5.25;2.87;;;;;;;-1.83;85.46;101144.53;2568201;55;20118;-67
2021/03/18 06:26:06;;;;;;;4.37;3.10;;;;;;;-1.88;86.00;101135.03;2568371;55;20170;-67
2021/03/18 06:28:37;;;;;;;4.28;3.28;;;;;;;-1.88;85.38;101141.13;2573906;55;20117;-67
2021/03/18 06:31:09;;;;;;;3.87;3.30;;;;;;;-1.88;85.43;101135.91;2574068;55;20109;-69
2021/03/18 06:33:40;;;;;;;3.78;3.22;;;;;;;-1.83;85.43;101139.28;2573846;55;20110;-68
2021/03/18 06:36:19;;;;;;;5.80;3.80;;;;;;;-1.79;85.35;101139.25;2569112;55;20130;-67
2021/03/18 06:39:01;;;;;;;4.57;3.20;;;;;;;-1.82;85.10;101129.72;2574319;55;20139;-67
2021/03/18 06:41:36;;;;;;;4.40;3.08;;;;;;;-1.85;85.52;101129.78;2573879;55;20195;-67
2021/03/18 06:44:17;;;;;;;4.85;3.03;;;;;;;-1.84;85.81;101123.66;2568799;55;20126;-69
2021/03/18 06:46:46;;;;;;;4.72;3.67;;;;;;;-1.82;85.70;101119.25;2573893;55;20121;-67
2021/03/18 06:49:19;;;;;;;4.93;3.53;;;;;;;-1.82;85.11;101120.09;2568941;55;20515;-67
2021/03/18 06:52:02;;;;;;;3.65;2.90;;;;;;;-1.77;84.59;101119.16;2573900;55;20159;-67
2021/03/18 06:54:40;;;;;;;4.35;3.45;;;;;;;-1.79;84.81;101118.34;2568662;55;20114;-67
2021/03/18 06:57:09;;;;;;;5.85;3.33;;;;;;;-1.82;85.01;101120.09;2573979;55;20131;-67
2021/03/18 06:59:39;;;;;;;5.25;3.35;;;;;;;-1.87;84.61;101127.16;2573884;55;20466;-67
2021/03/18 07:02:11;;;;;;;3.90;3.12;;;;;;;-1.90;85.00;101124.63;2574047;55;20177;-68
2021/03/18 07:04:43;;;;;;;3.70;3.35;;;;;;;-1.91;85.47;101119.41;2568830;55;20144;-68
2021/03/18 07:07:14;;;;;;;6.70;4.07;;;;;;;-1.87;85.72;101128.91;2573912;55;20492;-67
2021/03/18 07:09:45;;;;;;;;;;;;;;;-1.76;85.92;101119.13;2574041;55;20171;-67
2021/03/18 07:12:16;;;;;;;5.80;3.95;;;;;;;-1.82;85.02;101120.09;2573816;55;19993;-68
2021/03/18 07:14:45;;;;;;;;;;;;;;;-1.65;86.00;101121.56;2574167;55;20112;-67
2021/03/18 07:17:20;;;;;;;5.60;3.70;;;;;;;-1.75;83.82;101114.75;2573743;55;19997;-69
2021/03/18 07:19:47;;;;;;;4.00;2.92;;;;;;;-1.73;84.52;101112.97;2568765;55;20172;-67
2021/03/18 07:22:19;;;;;;;4.50;3.53;;;;;;;-1.67;83.60;101120.72;2573788;55;20118;-69
2021/03/18 07:24:55;;;;;;;5.93;3.92;;;;;;;-1.65;83.41;101116.31;2573709;55;20110;-69
2021/03/18 07:27:23;;;;;;;4.22;3.83;;;;;;;-1.66;83.81;101117.22;2573930;55;20542;-68
2021/03/18 07:29:52;;;;;;;6.18;4.18;;;;;;;-1.68;83.48;101112.00;2573696;55;20121;-67
2021/03/18 07:32:20;;;;;;;6.28;3.55;;;;;;;-1.67;84.12;101112.88;2568651;55;20605;-68
2021/03/18 07:34:49;;;;;;;4.57;3.25;;;;;;;-1.59;84.23;101118.84;2573755;55;20116;-68
2021/03/18 07:37:18;;;;;;;4.75;3.55;;;;;;;-1.56;83.12;101126.62;2573642;55;20103;-67
2021/03/18 07:39:46;;;;;;;5.20;3.22;;;;;;;-1.56;82.46;101120.53;2573596;55;20118;-68
2021/03/18 07:42:18;;;;;;;5.47;4.00;;;;;;;-1.57;81.85;101119.66;2573714;55;20113;-68
2021/03/18 07:44:47;;;;;;;4.47;3.50;;;;;;;-1.60;82.74;101114.50;2568733;55;20618;-67
2021/03/18 07:47:18;;;;;;;5.35;4.05;;;;;;;-1.55;82.45;101117.03;2573929;55;20543;-69
2021/03/18 07:49:52;;;;;;;4.25;3.08;;;;;;;-1.51;82.40;101120.44;2568701;55;20140;-68
2021/03/18 07:52:23;;;;;;;;;;;;;;;-1.32;82.45;101123.59;2568992;55;20121;-67
2021/03/18 07:54:55;;;;;;;4.57;3.70;;;;;;;-1.51;80.96;101117.81;2568683;55;19998;-69
2021/03/18 07:57:26;;;;;;;7.20;4.05;;;;;;;-1.61;80.96;101111.91;2568702;55;20132;-67
2021/03/18 08:00:09;;;;;;;5.93;3.87;;;;;;;-1.58;82.67;101112.72;2568793;55;20118;-68
2021/03/18 08:02:40;;;;;;;5.40;3.30;;;;;;;-1.62;82.24;101111.03;2573965;55;20125;-68
2021/03/18 08:05:12;;;;;;;6.35;3.83;;;;;;;-1.66;83.14;101124.19;2568604;55;20106;-67
2021/03/18 08:07:44;;;;;;;5.43;3.80;;;;;;;-1.68;81.74;101116.38;2568676;55;20138;-67
2021/03/18 08:10:14;;;;;;;4.72;3.37;;;;;;;-1.64;82.47;101123.28;2568638;55;20164;-68
2021/03/18 08:12:59;;;;;;;5.65;3.92;;;;;;;-1.53;82.98;101112.63;2568756;55;20113;-68
2021/03/18 08:15:35;;;;;;;4.87;3.80;;;;;;;-1.63;82.55;101111.91;2568711;55;20135;-67
2021/03/18 08:18:34;;;;;;;5.68;4.55;;;;;;;-1.56;84.23;101112.66;2574126;55;20165;-68
2021/03/18 08:21:04;;;;;;;7.32;4.80;;;;;;;-1.60;84.23;101109.28;2573565;55;20140;-68
2021/03/18 08:23:38;;;;;;;7.62;4.72;;;;;;;-1.54;84.24;101105.69;2573718;55;20492;-69
2021/03/18 08:26:09;;;;;;;8.82;4.70;;;;;;;-1.55;83.94;101107.41;2573619;55;20131;-67
2021/03/18 08:28:46;;;;;;;8.98;4.80;;;;;;;-1.54;84.02;101109.13;2568520;55;20132;-69
2021/03/18 08:31:17;;;;;;;7.18;4.75;;;;;;;-1.63;84.03;101109.31;2573712;55;20130;-67
2021/03/18 08:33:49;;;;;;;6.70;4.93;;;;;;;-1.63;84.20;101109.31;2568384;55;20110;-69
2021/03/18 08:36:28;;;;;;;7.53;4.78;;;;;;;-1.62;84.44;101111.03;2568545;55;20143;-68
2021/03/18 08:38:59;;;;;;;9.65;5.78;;;;;;;-1.67;83.96;101102.41;2573837;55;20124;-67
2021/03/18 08:41:32;;;;;;;7.20;5.00;;;;;;;-1.67;84.48;101110.25;2568382;55;20131;-67
2021/03/18 08:44:28;;;;;;;7.53;5.18;;;;;;;-1.59;86.18;101102.25;2573650;55;20117;-68
2021/03/18 08:46:58;;;;;;;8.15;5.25;;;;;;;-1.66;84.58;101104.13;2573317;55;20124;-68
2021/03/18 08:49:30;;;;;;;7.53;5.53;;;;;;;-1.64;84.03;101102.34;2573383;55;20120;-69
2021/03/18 08:52:01;;;;;;;9.20;6.03;;;;;;;-1.55;84.54;101110.03;2573672;55;20094;-68
2021/03/18 08:54:52;;;;;;;7.00;5.00;;;;;;;-1.57;84.69;101083.03;2568367;55;20105;-67
2021/03/18 08:57:33;;;;;;;19.08;6.03;;;;;;;-1.51;84.43;101097.75;2568709;55;20746;-67
2021/03/18 09:00:10;;;;;;;8.07;5.60;;;;;;;-1.52;83.54;101095.16;2573642;55;20139;-69
2021/03/18 09:02:40;;;;;;;8.25;4.93;;;;;;;-1.52;83.66;101105.63;2573672;55;20126;-67
2021/03/18 09:05:15;;;;;;;7.03;5.00;;;;;;;-1.43;83.92;101100.22;2573457;55;20110;-68
2021/03/18 09:07:45;;;;;;;7.95;4.95;;;;;;;-1.43;83.58;101098.47;2573507;55;20661;-68
2021/03/18 09:10:18;;;;;;;8.60;5.15;;;;;;;-1.36;82.89;101095.72;2568379;55;20105;-67
2021/03/18 09:12:49;;;;;;;8.15;4.95;;;;;;;-1.39;80.98;101096.69;2573501;55;20122;-67
2021/03/18 09:15:28;;;;;;;6.35;5.05;;;;;;;-1.40;81.85;101087.94;2568365;55;20118;-67
2021/03/18 09:18:00;;;;;;;7.68;5.18;;;;;;;-1.33;81.76;101088.69;2573639;55;20113;-69
2021/03/18 09:20:33;;;;;;;6.45;5.12;;;;;;;-1.35;79.89;101090.47;2568533;55;20132;-67
2021/03/18 09:23:12;;;;;;;7.80;4.85;;;;;;;-1.33;81.76;101086.06;2568415;55;20118;-68
2021/03/18 09:25:45;;;;;;;8.00;5.60;;;;;;;-1.32;80.62;101087.78;2568172;55;20155;-69
2021/03/18 09:28:16;;;;;;;8.23;4.87;;;;;;;-1.37;80.54;101089.66;2568184;55;20110;-69
2021/03/18 09:30:49;;;;;;;10.07;5.80;;;;;;;-1.39;81.74;101086.19;2573277;55;20118;-67
2021/03/18 09:33:20;;;;;;;;;;;;;;;-1.22;82.10;101079.75;2568764;55;20120;-69
2021/03/18 09:35:50;;;;;;;11.15;6.95;;;;;;;-1.24;81.12;101084.16;2573347;55;19998;-67
2021/03/18 09:38:20;;;;;;;10.60;6.53;;;;;;;-1.14;81.37;101083.06;2568310;55;20131;-68
2021/03/18 09:40:50;;;;;;;10.75;5.80;;;;;;;-1.16;80.64;101079.62;2573438;55;21840;-69
2021/03/18 09:43:20;;;;;;;7.80;5.28;;;;;;;-1.11;79.76;101080.38;2573352;55;20127;-69
2021/03/18 09:45:59;;;;;;;11.68;6.45;;;;;;;-1.24;79.46;101081.53;2573271;55;20114;-69
2021/03/18 09:48:30;;;;;;;10.20;5.93;;;;;;;-1.29;78.96;101077.28;2568306;55;20143;-68
2021/03/18 09:51:11;;;;;;;8.30;5.70;;;;;;;-1.15;79.54;101083.97;2568289;55;20109;-68
2021/03/18 09:53:41;;;;;;;7.57;5.22;;;;;;;-1.24;79.99;101073.69;2568301;55;20172;-67
2021/03/18 09:56:11;;;;;;;7.40;4.40;;;;;;;-1.19;79.00;101071.84;2568133;55;20549;-68
2021/03/18 09:58:41;;;;;;;8.15;4.95;;;;;;;-1.18;79.63;101074.41;2573268;55;20131;-68
2021/03/18 10:01:14;;;;;;;6.18;3.65;;;;;;;-1.15;78.43;101069.12;2567951;55;20121;-69
2021/03/18 10:03:52;;;;;;;;;;;;;;;-0.98;78.91;101066.16;2573627;55;20635;-67
2021/03/18 10:06:28;;;;;;;7.25;4.37;;;;;;;-1.06;78.29;101068.06;2573265;55;19977;-68
2021/03/18 10:09:16;;;;;;;7.12;4.53;;;;;;;-1.08;78.93;101069.88;2573203;55;20145;-67
2021/03/18 10:11:46;;;;;;;7.00;4.28;;;;;;;-1.16;77.56;101079.62;2573217;55;20854;-68
2021/03/18 10:14:18;;;;;;;6.47;4.18;;;;;;;-1.30;78.35;101070.31;2568126;55;20126;-69
2021/03/18 10:16:47;;;;;;;6.87;5.50;;;;;;;-1.26;79.02;101074.59;2567963;55;20110;-67
2021/03/18 10:19:19;;;;;;;6.78;4.72;;;;;;;-1.33;80.13;101067.72;2568136;55;20494;-68
2021/03/18 10:21:50;;;;;;;5.47;4.40;;;;;;;-1.24;80.03;101068.44;2568101;55;20110;-68
2021/03/18 10:24:20;;;;;;;6.75;4.50;;;;;;;-1.28;79.99;101065.03;2573185;55;20135;-69
2021/03/18 10:26:48;;;;;;;9.10;6.43;;;;;;;-1.33;81.23;101065.13;2573158;55;20110;-68
2021/03/18 10:29:18;;;;;;;9.90;6.93;;;;;;;-1.39;82.15;101060.03;2573214;55;20118;-69
2021/03/18 10:31:48;;;;;;;9.20;6.97;;;;;;;-1.24;81.68;101057.97;2572941;55;20117;-68
2021/03/18 10:34:28;;;;;;;9.15;6.03;;;;;;;-1.20;83.47;101060.50;2568135;55;20451;-67
2021/03/18 10:36:55;;;;;;;10.45;6.35;;;;;;;-1.24;83.41;101057.97;2573002;55;20097;-68
2021/03/18 10:39:24;;;;;;;13.80;7.50;;;;;;;-1.19;83.44;101062.22;2572924;55;20133;-68
2021/03/18 10:41:54;;;;;;;9.15;5.57;;;;;;;-1.28;82.03;101052.81;2567909;55;20131;-67
2021/03/18 10:44:34;;;;;;;8.70;6.07;;;;;;;-1.27;83.09;101056.28;2567990;55;20124;-67
2021/03/18 10:47:18;;;;;;;10.55;6.15;;;;;;;-1.07;82.61;101061.13;2568063;55;20140;-67
2021/03/18 10:50:00;;;;;;;8.95;6.22;;;;;;;-0.99;82.07;101053.97;2567961;55;20136;-68
2021/03/18 10:52:28;;;;;;;8.20;6.30;;;;;;;-0.93;82.01;101062.56;2567930;55;20128;-67
2021/03/18 10:54:57;;;;;;;9.55;6.28;;;;;;;-0.81;80.82;101051.81;2572856;55;20642;-69
2021/03/18 10:57:27;;;;;;;9.32;5.95;;;;;;;-0.71;80.46;101047.25;2567873;55;20114;-67
2021/03/18 10:59:59;;;;;;;9.45;6.47;;;;;;;-0.73;80.08;101052.50;2573102;55;20109;-69
2021/03/18 11:02:36;;;;;;;10.90;6.70;;;;;;;-0.73;80.25;101054.28;2567950;55;20125;-68
2021/03/18 11:05:06;;;;;;;8.48;5.37;;;;;;;-0.80;79.63;101057.94;2567893;55;20134;-68
2021/03/18 11:07:36;;;;;;;7.55;5.22;;;;;;;-0.86;81.01;101051.06;2572883;55;20410;-67
2021/03/18 11:10:11;;;;;;;7.75;5.37;;;;;;;-0.86;81.72;101048.44;2572929;55;20140;-67
2021/03/18 11:12:40;;;;;;;7.70;5.47;;;;;;;-0.85;79.91;101056.28;2573046;55;20136;-67
2021/03/18 11:15:11;;;;;;;7.45;4.93;;;;;;;-0.90;79.45;101046.78;2568737;55;20132;-67
2021/03/18 11:17:41;;;;;;;11.93;7.43;;;;;;;-0.95;80.43;101053.87;2573839;55;20170;-69
2021/03/18 11:20:11;;;;;;;12.00;6.87;;;;;;;-1.02;80.13;101054.00;2573781;55;20121;-67
2021/03/18 11:22:40;;;;;;;8.38;6.18;;;;;;;-1.06;80.65;101051.47;2573945;55;20152;-67
2021/03/18 11:25:11;;;;;;;9.93;7.87;;;;;;;-1.08;80.32;101048.03;2573757;55;20124;-69
2021/03/18 11:27:40;;;;;;;7.50;5.22;;;;;;;-1.08;81.39;101054.16;2573979;55;20131;-68
2021/03/18 11:30:09;;;;;;;8.57;5.37;;;;;;;-1.16;81.17;101056.91;2568593;55;20113;-68
2021/03/18 11:32:39;;;;;;;8.38;5.78;;;;;;;-1.17;81.77;101054.34;2568633;55;20122;-67
2021/03/18 11:35:18;;;;;;;9.00;5.35;;;;;;;-1.21;81.46;101047.44;2573905;55;20114;-67
2021/03/18 11:37:46;;;;;;;8.85;5.70;;;;;;;-1.12;81.54;101057.72;2573909;55;20109;-68
2021/03/18 11:40:15;;;;;;;8.73;5.70;;;;;;;-1.13;80.55;101045.53;2573773;55;20643;-68
2021/03/18 11:42:44;;;;;;;8.98;5.55;;;;;;;-1.15;81.78;101047.31;2568800;55;20501;-68
2021/03/18 11:45:15;;;;;;;7.78;5.12;;;;;;;-1.11;81.37;101051.56;2573658;55;20113;-67
2021/03/18 11:48:05;;;;;;;9.35;6.20;;;;;;;-1.12;81.00;101049.84;2568558;55;20102;-67